Time;durP1;ratioP1;P1;durP2;ratioP2;P2;SDS_P1;SDS_P2;PMS_P1;PMS_P2;Temp;Humidity;BMP_temperature;BMP_pressure;BME280_temperature;BME280_humidity;BME280_pressure;Samples;Min_cycle;Max_cycle;Signal;HPM_P1;HPM_P2
2023/11/15 00:01:32;;;;;;;0.45;0.45;;;20.40;59.50;;;19.45;48.29;93877.78;5052372;28;20194;-61
2023/11/15 00:04:00;;;;;;;0.43;0.43;;;20.50;59.70;;;19.43;48.07;93872.75;5052406;28;20205;-68
2023/11/15 00:06:27;;;;;;;0.40;0.40;;;20.50;59.70;;;19.48;48.36;93871.91;5051150;28;20211;-65
2023/11/15 00:08:56;;;;;;;0.50;0.50;;;20.50;59.60;;;19.49;47.91;93876.97;5051399;28;20689;-68
2023/11/15 00:11:24;;;;;;;0.47;0.47;;;20.50;59.70;;;19.49;47.98;93879.63;5051327;28;20279;-68
2023/11/15 00:13:52;;;;;;;0.40;0.40;;;20.50;59.70;;;19.45;48.35;93865.25;5051300;28;20196;-67
2023/11/15 00:16:20;;;;;;;0.40;0.40;;;20.50;59.70;;;19.50;48.07;93881.19;5052011;28;20226;-67
2023/11/15 00:18:48;;;;;;;0.43;0.43;;;20.40;59.50;;;19.43;48.37;93872.75;5051458;28;20203;-66
2023/11/15 00:21:16;;;;;;;0.40;0.40;;;20.50;59.70;;;19.44;48.04;93869.00;5051465;28;20202;-61
2023/11/15 00:23:47;;;;;;;0.40;0.40;;;20.40;59.60;;;19.48;48.02;93878.03;5051298;28;20666;-68
2023/11/15 00:26:15;;;;;;;0.50;0.50;;;20.50;59.80;;;19.50;48.05;93881.19;5050819;28;20192;-64
2023/11/15 00:28:55;;;;;;;0.40;0.40;;;20.50;59.90;;;19.47;48.15;93897.72;5050938;28;20293;-68
2023/11/15 00:31:24;;;;;;;0.50;0.50;;;20.40;59.70;;;19.49;48.40;93892.94;5051444;28;20260;-67
2023/11/15 00:33:51;;;;;;;0.40;0.40;;;20.50;59.90;;;19.51;48.08;93898.75;5067817;28;20190;-66
2023/11/15 00:36:19;;;;;;;0.45;0.45;;;20.50;59.80;;;19.54;48.57;93901.94;5050741;28;20193;-66
2023/11/15 00:38:51;;;;;;;0.40;0.40;;;20.50;59.90;;;19.52;48.11;93894.25;5067941;28;20198;-65
2023/11/15 00:41:18;;;;;;;0.40;0.40;;;20.50;59.90;;;19.50;48.43;93893.72;5051070;28;20201;-66
2023/11/15 00:43:47;;;;;;;0.50;0.50;;;20.50;60.00;;;19.50;48.84;93889.16;5050917;28;20210;-60
2023/11/15 00:46:15;;;;;;;0.40;0.40;;;20.50;59.90;;;19.53;48.05;93885.19;5034406;28;20294;-64
2023/11/15 00:48:43;;;;;;;0.40;0.40;;;20.50;59.90;;;19.53;48.56;93898.50;5034444;28;20426;-65
2023/11/15 00:51:12;;;;;;;0.60;0.60;;;20.50;60.00;;;19.54;48.61;93893.97;5034239;28;20195;-64
2023/11/15 00:53:43;;;;;;;0.50;0.50;;;20.50;60.00;;;19.54;48.55;93899.28;5051873;28;20201;-67
2023/11/15 00:56:11;;;;;;;0.40;0.40;;;20.50;60.00;;;19.54;48.19;93884.09;5050541;28;20206;-65
2023/11/15 00:58:41;;;;;;;0.40;0.40;;;20.50;60.00;;;19.55;48.49;93887.56;5069714;28;20270;-66
2023/11/15 01:01:10;;;;;;;0.50;0.50;;;20.50;60.00;;;19.54;48.45;93883.31;5055773;28;20208;-67
2023/11/15 01:03:45;;;;;;;0.30;0.30;;;20.50;60.00;;;19.55;48.69;93890.22;5054571;28;20705;-67
2023/11/15 01:06:14;;;;;;;0.40;0.40;;;20.50;60.00;;;19.49;48.55;93897.44;5054028;28;20648;-66
2023/11/15 01:08:41;;;;;;;0.50;0.50;;;20.50;60.00;;;19.48;48.57;93893.19;5038034;28;20203;-67
2023/11/15 01:11:10;;;;;;;0.50;0.50;;;20.50;60.00;;;19.50;48.49;93881.19;5055911;28;20210;-67
2023/11/15 01:13:37;;;;;;;0.50;0.50;;;20.50;60.00;;;19.55;48.53;93880.38;5055620;28;20259;-65
2023/11/15 01:16:06;;;;;;;0.40;0.40;;;20.50;60.10;;;19.56;48.32;93892.63;5054180;28;20202;-67
2023/11/15 01:18:34;;;;;;;0.50;0.50;;;20.50;60.00;;;19.55;48.75;93879.59;5055155;28;20262;-67
2023/11/15 01:21:01;;;;;;;0.50;0.50;;;20.50;60.00;;;19.55;48.73;93872.41;5054114;28;20199;-64
2023/11/15 01:23:29;;;;;;;0.40;0.40;;;20.50;60.00;;;19.49;48.71;93857.53;5037631;28;20293;-65
2023/11/15 01:25:57;;;;;;;0.40;0.40;;;20.50;60.00;;;19.55;48.40;93868.97;5054132;28;20559;-64
2023/11/15 01:28:25;;;;;;;0.50;0.50;;;20.50;60.00;;;19.50;48.23;93867.91;5053914;28;20716;-62
2023/11/15 01:30:53;;;;;;;0.40;0.40;;;20.50;60.10;;;19.48;48.59;93869.25;5055312;28;20216;-65
2023/11/15 01:33:20;;;;;;;0.40;0.40;;;20.50;60.00;;;19.55;48.83;93879.59;5070576;28;20211;-61
2023/11/15 01:35:48;;;;;;;0.40;0.40;;;20.50;60.00;;;19.53;48.47;93885.19;5053624;28;20229;-68
2023/11/15 01:38:16;;;;;;;0.50;0.50;;;20.50;60.00;;;19.54;48.59;93873.47;5070264;28;20234;-67
2023/11/15 01:40:43;;;;;;;0.50;0.50;;;20.50;60.00;;;19.53;48.65;93879.88;5037333;28;20365;-66
2023/11/15 01:43:16;;;;;;;0.43;0.43;;;20.50;60.00;;;19.54;48.26;93881.44;5053662;28;20544;-60
2023/11/15 01:45:48;;;;;;;0.40;0.40;;;20.50;60.00;;;19.54;48.93;93880.66;5054389;28;20210;-67
2023/11/15 01:48:16;;;;;;;0.50;0.50;;;20.50;60.00;;;19.54;48.95;93889.44;5053607;28;20281;-67
2023/11/15 01:50:46;;;;;;;0.50;0.50;;;20.50;60.00;;;19.47;48.49;93876.44;5037404;28;20207;-66
2023/11/15 01:53:15;;;;;;;0.40;0.40;;;20.50;60.10;;;19.50;48.57;93878.53;5053625;28;20292;-67
2023/11/15 01:55:45;;;;;;;0.50;0.50;;;20.50;60.10;;;19.54;48.62;93886.75;5070139;28;20197;-66
2023/11/15 01:58:14;;;;;;;0.50;0.50;;;20.50;60.10;;;19.49;48.73;93876.97;5036364;28;20289;-61
2023/11/15 02:00:42;;;;;;;0.50;0.50;;;20.50;60.10;;;19.48;48.85;93874.56;5053374;28;20213;-65
2023/11/15 02:03:11;;;;;;;0.50;0.50;;;20.50;60.10;;;19.48;48.42;93875.38;5053508;28;20199;-64
2023/11/15 02:05:41;;;;;;;0.50;0.50;;;20.50;60.10;;;19.47;48.71;93872.97;5053607;28;20199;-67
2023/11/15 02:08:09;;;;;;;0.40;0.40;;;20.50;60.10;;;19.48;49.03;93869.25;5036717;28;20232;-66
2023/11/15 02:10:37;;;;;;;0.40;0.40;;;20.50;60.10;;;19.55;48.80;93876.94;5052550;28;20210;-65
2023/11/15 02:13:23;;;;;;;0.47;0.47;;;20.50;60.10;;;19.49;48.92;93878.81;5053264;28;20199;-67
2023/11/15 02:15:57;;;;;;;0.40;0.40;;;20.50;60.10;;;19.54;48.87;93873.47;5036909;28;20250;-61
2023/11/15 02:18:26;;;;;;;0.50;0.50;;;20.50;60.10;;;19.57;48.56;93872.16;5052829;28;20215;-62
2023/11/15 02:20:53;;;;;;;0.40;0.40;;;20.50;60.10;;;19.56;48.68;93878.53;5036790;28;20196;-64
2023/11/15 02:23:22;;;;;;;0.40;0.40;;;20.50;60.10;;;19.48;48.92;93862.06;5052932;28;20207;-65
2023/11/15 02:25:53;;;;;;;0.50;0.50;;;20.50;60.10;;;19.56;48.44;93871.34;5053365;28;20199;-65
2023/11/15 02:28:21;;;;;;;0.40;0.40;;;20.50;60.10;;;19.55;48.63;93871.63;5069376;28;20237;-66
2023/11/15 02:30:49;;;;;;;0.40;0.40;;;20.50;60.10;;;19.55;48.38;93877.72;5052865;28;20202;-66
2023/11/15 02:33:17;;;;;;;0.40;0.40;;;20.50;60.10;;;19.56;48.83;93878.53;5069370;28;20220;-65
2023/11/15 02:35:46;;;;;;;0.30;0.30;;;20.50;60.10;;;19.48;48.66;93863.91;5052695;28;20195;-66
2023/11/15 02:38:14;;;;;;;0.43;0.43;;;20.50;60.10;;;19.49;48.40;93873.50;5035816;28;20286;-66
2023/11/15 02:40:42;;;;;;;0.50;0.50;;;20.50;60.10;;;19.53;48.70;93871.91;5052939;28;20202;-65
2023/11/15 02:43:16;;;;;;;0.40;0.40;;;20.50;60.10;;;19.55;49.11;93874.28;5036454;28;20210;-65
2023/11/15 02:45:44;;;;;;;0.40;0.40;;;20.50;60.10;;;19.55;49.05;93884.91;5036300;28;20206;-64
2023/11/15 02:48:11;;;;;;;0.40;0.40;;;20.50;61.00;;;19.57;48.58;93880.13;5035910;28;20227;-65
2023/11/15 02:50:39;;;;;;;0.40;0.40;;;20.50;60.20;;;19.54;48.39;93885.97;5053448;28;20203;-65
2023/11/15 02:53:07;;;;;;;0.40;0.40;;;20.50;60.20;;;19.55;49.12;93884.91;5053605;28;20191;-65
2023/11/15 02:55:37;;;;;;;0.40;0.40;;;20.50;60.10;;;19.57;48.99;93904.06;5052579;28;20203;-66
2023/11/15 02:58:04;;;;;;;0.43;0.43;;;20.50;60.20;;;19.56;48.65;93911.22;5053001;28;20242;-66
2023/11/15 03:00:32;;;;;;;0.40;0.40;;;20.50;60.20;;;19.58;48.47;93898.47;5052191;28;20202;-65
2023/11/15 03:03:00;;;;;;;0.50;0.50;;;20.50;60.20;;;19.52;49.06;93879.06;5053324;28;20205;-67
2023/11/15 03:05:27;;;;;;;0.40;0.40;;;20.50;60.20;;;19.52;48.76;93888.91;5068545;28;20192;-66
2023/11/15 03:07:57;;;;;;;0.50;0.50;;;20.50;60.20;;;19.58;48.77;93892.34;5052253;28;20198;-63
2023/11/15 03:10:24;;;;;;;0.50;0.50;;;20.50;60.10;;;19.58;48.72;93902.97;5051828;28;20198;-64
2023/11/15 03:12:52;;;;;;;0.50;0.50;;;20.50;60.20;;;19.61;48.91;93905.09;5052139;28;20702;-67
2023/11/15 03:15:20;;;;;;;0.47;0.47;;;20.50;60.20;;;19.55;49.19;93884.91;5052116;28;20207;-67
2023/11/15 03:17:47;;;;;;;0.50;0.50;;;20.50;60.20;;;19.61;48.61;93911.19;5051670;28;20698;-65
2023/11/15 03:20:16;;;;;;;0.40;0.40;;;20.50;60.20;;;19.61;48.58;93910.41;5051680;28;20290;-66
2023/11/15 03:22:44;;;;;;;0.47;0.47;;;20.50;60.20;;;19.59;48.59;93897.41;5051127;28;20257;-65
2023/11/15 03:25:12;;;;;;;0.40;0.40;;;20.50;60.20;;;19.61;48.89;93894.47;5051750;28;20672;-66
2023/11/15 03:27:41;;;;;;;0.40;0.40;;;20.50;60.20;;;19.57;48.99;93886.22;5051718;28;20258;-66
2023/11/15 03:30:09;;;;;;;0.40;0.40;;;20.50;60.20;;;19.58;48.88;93890.47;5051681;28;20214;-66
2023/11/15 03:32:37;;;;;;;0.50;0.50;;;20.50;60.20;;;19.58;48.91;93897.66;5035023;28;20564;-66
2023/11/15 03:35:05;;;;;;;0.40;0.40;;;20.60;60.30;;;19.57;48.72;93898.75;5035601;28;20295;-65
2023/11/15 03:37:34;;;;;;;0.40;0.40;;;20.50;60.20;;;19.59;49.08;93907.22;5035128;28;20261;-66
2023/11/15 03:40:03;;;;;;;0.47;0.47;;;20.60;60.20;;;19.58;48.50;93905.63;5051761;28;20199;-63
2023/11/15 03:42:31;;;;;;;0.40;0.40;;;20.60;60.30;;;19.58;48.51;93911.75;5051701;28;20194;-60
2023/11/15 03:44:59;;;;;;;0.40;0.40;;;20.60;60.30;;;19.60;48.85;93920.25;5051491;28;20207;-63
2023/11/15 03:47:27;;;;;;;0.40;0.40;;;20.60;60.30;;;19.60;48.45;93912.28;5035329;28;20227;-66
2023/11/15 03:49:54;;;;;;;0.43;0.43;;;20.60;60.30;;;19.64;48.66;93926.63;5067942;28;20206;-62
2023/11/15 03:52:22;;;;;;;0.32;0.32;;;20.50;60.20;;;19.59;48.85;93918.69;5051529;28;20210;-67
2023/11/15 03:54:50;;;;;;;0.50;0.50;;;20.60;60.30;;;19.60;48.69;93922.91;5034866;28;20209;-65
2023/11/15 03:57:18;;;;;;;0.45;0.45;;;20.60;60.30;;;19.66;48.54;93940.47;5067365;28;20328;-65
2023/11/15 03:59:45;;;;;;;0.40;0.40;;;20.60;60.30;;;19.65;48.56;93944.19;5051491;28;20211;-65
2023/11/15 04:02:14;;;;;;;0.40;0.40;;;20.60;60.30;;;19.66;48.89;93939.66;5067678;28;20604;-61
2023/11/15 04:04:43;;;;;;;0.50;0.50;;;20.60;60.30;;;19.58;48.97;93935.69;5035030;28;20256;-66
2023/11/15 04:07:11;;;;;;;0.50;0.50;;;20.60;60.30;;;19.61;48.91;93935.16;5067892;28;20201;-66
2023/11/15 04:09:40;;;;;;;0.40;0.40;;;20.60;60.30;;;19.66;48.84;93953.75;5034827;28;20874;-68
2023/11/15 04:12:08;;;;;;;0.63;0.63;;;20.60;60.30;;;19.68;48.79;93966.78;5052311;28;20604;-66
2023/11/15 04:14:36;;;;;;;0.50;0.50;;;20.60;60.30;;;19.68;49.09;93956.16;5051094;28;20198;-64
2023/11/15 04:17:05;;;;;;;0.40;0.40;;;20.60;60.30;;;19.68;48.47;93969.44;5034788;28;20654;-66
2023/11/15 04:19:33;;;;;;;0.43;0.43;;;20.60;60.30;;;19.67;48.84;93967.84;5067689;28;20213;-66
2023/11/15 04:22:01;;;;;;;0.40;0.40;;;20.60;60.30;;;19.68;48.95;93964.13;5034521;28;20237;-64
2023/11/15 04:24:41;;;;;;;0.50;0.50;;;20.60;60.30;;;19.68;48.92;93977.44;5036292;28;20306;-61
2023/11/15 04:27:08;;;;;;;0.40;0.40;;;20.60;60.30;;;19.70;49.06;93982.47;5051343;28;20250;-66
2023/11/15 04:29:40;;;;;;;0.40;0.40;;;20.60;60.30;;;19.69;49.12;93971.03;5051103;28;20187;-61
2023/11/15 04:32:08;;;;;;;0.50;0.50;;;20.60;60.30;;;19.62;49.18;93963.34;5051321;28;20191;-64
2023/11/15 04:34:36;;;;;;;0.50;0.50;;;20.60;60.30;;;19.61;48.61;93958.28;5055057;28;20635;-66
2023/11/15 04:37:03;;;;;;;0.40;0.40;;;20.60;60.30;;;19.62;48.59;93968.66;5056105;28;20221;-66
2023/11/15 04:39:31;;;;;;;0.50;0.50;;;20.60;60.30;;;19.63;48.44;93964.94;5056195;28;20203;-61
2023/11/15 04:41:59;;;;;;;0.40;0.40;;;20.60;60.30;;;19.61;48.69;93967.06;5054887;28;20576;-67
2023/11/15 04:44:29;;;;;;;0.50;0.50;;;20.60;60.30;;;19.67;48.76;93981.94;5054717;28;20222;-67
2023/11/15 04:46:57;;;;;;;0.50;0.50;;;20.60;60.30;;;19.60;48.94;93962.81;5055131;28;20207;-65
2023/11/15 04:49:24;;;;;;;0.50;0.50;;;20.60;60.30;;;19.62;49.18;93973.19;5054469;28;20306;-62
2023/11/15 04:51:52;;;;;;;0.40;0.40;;;20.60;60.30;;;19.64;48.99;93976.34;5056107;28;20198;-65
2023/11/15 04:54:20;;;;;;;0.50;0.50;;;20.60;60.30;;;19.64;48.66;93981.69;5055753;28;20197;-60
2023/11/15 04:56:48;;;;;;;0.60;0.60;;;20.60;60.30;;;19.64;48.80;93971.03;5055684;28;20306;-66
2023/11/15 04:59:15;;;;;;;0.40;0.40;;;20.60;60.30;;;19.65;48.90;93984.09;5054523;28;20252;-67
2023/11/15 05:01:45;;;;;;;0.40;0.40;;;20.60;60.30;;;19.65;48.62;93985.94;5054431;28;20201;-65
2023/11/15 05:04:14;;;;;;;0.40;0.40;;;20.60;60.30;;;19.65;49.27;93992.06;5055424;28;20184;-65
2023/11/15 05:06:44;;;;;;;0.45;0.45;;;20.60;60.30;;;19.71;48.77;94000.81;5055540;28;20195;-65
2023/11/15 05:09:12;;;;;;;0.40;0.40;;;20.60;61.40;;;19.71;48.72;94002.69;5037899;28;20207;-65
2023/11/15 05:11:40;;;;;;;0.30;0.30;;;20.60;60.30;;;19.70;49.14;94014.41;5037890;28;20298;-59
2023/11/15 05:14:08;;;;;;;0.40;0.40;;;20.60;60.30;;;19.71;49.23;94003.47;5054372;28;20653;-67
2023/11/15 05:16:36;;;;;;;0.50;0.50;;;20.60;60.30;;;19.72;48.56;94013.06;5053946;28;20235;-67
2023/11/15 05:19:03;;;;;;;0.43;0.43;;;20.60;60.30;;;19.65;48.83;93993.91;5055398;28;20305;-67
2023/11/15 05:21:32;;;;;;;0.50;0.50;;;20.60;60.30;;;19.72;49.05;94012.25;5055253;28;20206;-63
2023/11/15 05:24:00;;;;;;;0.43;0.43;;;20.60;60.30;;;19.72;49.15;94020.25;5054564;28;20250;-65
2023/11/15 05:26:28;;;;;;;0.40;0.40;;;20.60;60.30;;;19.64;49.23;94016.25;5055179;28;20253;-67
2023/11/15 05:28:57;;;;;;;0.40;0.40;;;20.60;60.30;;;19.68;48.58;94039.41;5053850;28;20195;-64
2023/11/15 05:31:26;;;;;;;0.40;0.40;;;20.60;60.30;;;19.64;48.71;94016.25;5055635;28;20631;-64
2023/11/15 05:33:54;;;;;;;0.50;0.50;;;20.60;60.20;;;19.71;48.75;94030.06;5054037;28;20199;-67
2023/11/15 05:36:22;;;;;;;0.40;0.40;;;20.60;60.20;;;19.72;48.49;94060.94;5053773;28;20199;-67
2023/11/15 05:38:49;;;;;;;0.47;0.47;;;20.60;60.20;;;19.73;48.82;94075.84;5053610;28;20230;-67
2023/11/15 05:41:17;;;;;;;0.40;0.40;;;20.60;60.30;;;19.71;48.71;94069.97;5055053;28;20277;-65
2023/11/15 05:43:45;;;;;;;0.40;0.40;;;20.60;60.20;;;19.64;48.64;94062.31;5054164;28;20257;-63
2023/11/15 05:46:13;;;;;;;0.43;0.43;;;20.60;60.30;;;19.63;49.19;94071.34;5053667;28;20277;-64
2023/11/15 05:48:42;;;;;;;0.45;0.45;;;20.60;60.30;;;19.72;48.76;94087.53;5053517;28;20645;-61
2023/11/15 05:51:10;;;;;;;0.40;0.40;;;20.60;60.30;;;19.72;48.70;94089.41;5054685;28;20222;-63
2023/11/15 05:53:38;;;;;;;0.40;0.40;;;20.60;60.30;;;19.66;48.63;94080.66;5054753;28;20264;-64
2023/11/15 05:56:07;;;;;;;0.40;0.40;;;20.60;60.30;;;19.63;48.68;94075.88;5053410;28;20198;-60
2023/11/15 05:58:35;;;;;;;0.30;0.30;;;20.60;60.30;;;19.70;48.68;94095.03;5036287;28;20709;-65
2023/11/15 06:01:03;;;;;;;0.50;0.50;;;20.60;60.30;;;19.71;48.44;94103.78;5037086;28;20201;-65
2023/11/15 06:03:31;;;;;;;0.50;0.50;;;20.60;60.30;;;19.68;48.96;94110.44;5053218;28;20201;-66
2023/11/15 06:06:01;;;;;;;0.40;0.40;;;20.60;60.30;;;19.62;48.55;94109.66;5053344;28;20188;-63
2023/11/15 06:08:29;;;;;;;0.45;0.45;;;20.60;60.30;;;19.67;48.56;94124.81;5052903;28;20213;-67
2023/11/15 06:10:56;;;;;;;0.45;0.45;;;20.60;60.30;;;19.68;48.61;94140.50;5054373;28;20280;-64
2023/11/15 06:13:24;;;;;;;0.50;0.50;;;20.60;60.30;;;19.67;48.92;94136.22;5053402;28;20199;-66
2023/11/15 06:15:52;;;;;;;0.50;0.50;;;20.60;60.30;;;19.65;49.04;94138.38;5054371;28;20621;-62
2023/11/15 06:18:21;;;;;;;0.40;0.40;;;20.60;60.30;;;19.60;48.96;94130.38;5053821;28;20233;-67
2023/11/15 06:20:49;;;;;;;0.40;0.40;;;20.60;60.30;;;19.69;48.83;94165.25;5053023;28;20215;-67
2023/11/15 06:23:17;;;;;;;0.40;0.40;;;20.60;60.30;;;19.66;48.63;94166.59;5054123;28;20651;-64
2023/11/15 06:25:46;;;;;;;0.50;0.50;;;20.60;60.30;;;19.60;48.62;94169.50;5054163;28;20202;-65
2023/11/15 06:28:13;;;;;;;0.45;0.45;;;20.60;60.30;;;19.68;49.03;94192.91;5052760;28;20198;-66
2023/11/15 06:30:45;;;;;;;0.45;0.45;;;20.60;60.30;;;19.61;49.08;94179.09;5053834;28;20195;-65
2023/11/15 06:33:13;;;;;;;0.50;0.50;;;20.60;60.30;;;19.66;48.88;94187.06;5054291;28;20650;-66
2023/11/15 06:35:41;;;;;;;0.40;0.40;;;20.60;60.30;;;19.66;48.89;94195.84;5052661;28;20195;-64
2023/11/15 06:38:09;;;;;;;0.55;0.55;;;20.60;60.40;;;19.66;48.84;94208.34;5053847;28;20294;-66
2023/11/15 06:40:37;;;;;;;0.40;0.40;;;20.60;60.30;;;19.60;49.11;94194.22;5052287;28;20192;-66
2023/11/15 06:43:06;;;;;;;0.40;0.40;;;20.60;60.40;;;19.65;48.76;94214.72;5053831;28;20198;-65
2023/11/15 06:45:33;;;;;;;0.40;0.40;;;20.60;60.30;;;19.66;49.05;94214.47;5036504;28;20207;-63
2023/11/15 06:48:01;;;;;;;0.40;0.40;;;20.60;60.30;;;19.66;48.84;94227.78;5052226;28;20290;-60
2023/11/15 06:50:29;;;;;;;0.40;0.40;;;20.60;60.30;;;19.61;48.79;94224.31;5053436;28;20204;-66
2023/11/15 06:52:57;;;;;;;0.40;0.40;;;20.60;60.40;;;19.64;48.63;94229.09;5054063;28;20226;-66
2023/11/15 06:55:24;;;;;;;0.40;0.40;;;20.60;60.30;;;19.67;48.66;94247.19;5053635;28;20191;-67
2023/11/15 06:57:52;;;;;;;0.50;0.50;;;20.60;60.30;;;19.62;49.11;94241.88;5053693;28;20301;-65
2023/11/15 07:00:21;;;;;;;0.43;0.43;;;20.60;60.40;;;19.66;49.15;94257.03;5051968;28;20203;-66
2023/11/15 07:02:49;;;;;;;0.45;0.45;;;20.60;60.40;;;19.64;48.97;94245.03;5053279;28;20206;-60
2023/11/15 07:05:18;;;;;;;0.40;0.40;;;20.60;60.30;;;19.68;48.96;94256.78;5053315;28;20285;-65
2023/11/15 07:07:46;;;;;;;0.40;0.40;;;20.60;60.40;;;19.70;48.93;94259.16;5053292;28;20211;-60
2023/11/15 07:10:15;;;;;;;0.40;0.40;;;20.60;60.40;;;19.69;48.76;94266.34;5053276;28;20676;-66
2023/11/15 07:12:42;;;;;;;0.35;0.35;;;20.50;60.30;;;19.64;49.11;94267.13;5053337;28;20274;-64
2023/11/15 07:15:16;;;;;;;0.40;0.40;;;20.60;60.40;;;19.69;49.08;94282.31;5051879;28;20195;-61
2023/11/15 07:17:44;;;;;;;0.50;0.50;;;20.60;60.40;;;19.62;49.20;94260.50;5053287;28;20205;-67
2023/11/15 07:20:13;;;;;;;0.50;0.50;;;20.60;60.30;;;19.69;49.34;94282.31;5051682;28;20653;-65
2023/11/15 07:22:41;;;;;;;0.40;0.40;;;20.60;60.50;;;19.68;48.97;94289.47;5052073;28;20245;-60
2023/11/15 07:25:12;;;;;;;0.40;0.40;;;20.60;60.30;;;19.69;49.06;94274.34;5053383;28;20201;-67
2023/11/15 07:27:41;;;;;;;0.40;0.40;;;20.60;60.30;;;19.68;49.09;94286.81;5051823;28;20269;-61
2023/11/15 07:30:12;;;;;;;0.60;0.60;;;20.60;60.40;;;19.66;49.14;94296.13;5068381;28;20227;-65
2023/11/15 07:32:40;;;;;;;0.40;0.40;;;20.60;60.30;;;19.71;48.66;94322.75;5052151;28;20194;-67
2023/11/15 07:35:11;;;;;;;0.50;0.50;;;20.60;60.40;;;19.70;49.06;94318.50;5053044;28;20244;-65
2023/11/15 07:37:40;;;;;;;0.30;0.30;;;20.60;60.30;;;19.64;48.68;94316.88;5051693;28;20549;-66
2023/11/15 07:40:12;;;;;;;0.40;0.40;;;20.60;60.30;;;19.67;49.11;94324.34;5051308;28;20226;-65
2023/11/15 07:42:41;;;;;;;0.40;0.40;;;20.60;60.30;;;19.73;49.19;94335.81;5052625;28;20653;-61
2023/11/15 07:45:10;;;;;;;0.40;0.40;;;20.60;60.30;;;19.71;49.07;94328.06;5052788;28;20204;-66
2023/11/15 07:47:37;;;;;;;0.50;0.50;;;20.60;60.40;;;19.71;49.29;94329.94;5051846;28;20205;-67
2023/11/15 07:50:08;;;;;;;0.40;0.40;;;20.60;60.70;;;19.71;48.51;94335.25;5052499;28;20189;-66
2023/11/15 07:52:37;;;;;;;0.40;0.40;;;20.60;60.30;;;19.72;49.21;94326.22;5052415;28;20205;-61
2023/11/15 07:55:05;;;;;;;0.40;0.40;;;20.60;60.30;;;19.73;49.24;94341.91;5034951;28;20203;-65
2023/11/15 07:57:33;;;;;;;0.40;0.40;;;20.60;60.40;;;19.68;48.66;94331.25;5051357;28;20231;-65
2023/11/15 08:00:01;;;;;;;0.40;0.40;;;20.60;60.40;;;19.74;49.33;94340.84;5052213;28;20263;-60
2023/11/15 08:02:38;;;;;;;0.40;0.40;;;20.60;60.40;;;19.77;49.21;94352.81;5051277;28;20209;-65
2023/11/15 08:05:10;;;;;;;0.50;0.50;;;20.60;60.50;;;19.78;48.93;94359.75;5052458;28;20226;-60
2023/11/15 08:07:38;;;;;;;0.40;0.40;;;20.60;60.40;;;19.79;48.54;94356.81;5034685;28;20186;-64
2023/11/15 08:10:07;;;;;;;0.40;0.40;;;20.60;60.40;;;19.80;48.70;94354.97;5051093;28;20202;-60
2023/11/15 08:12:35;;;;;;;0.40;0.40;;;20.70;60.40;;;19.76;49.23;94343.25;5051082;28;20671;-62
2023/11/15 08:15:05;;;;;;;0.40;0.40;;;20.70;60.50;;;19.80;48.77;94363.75;5052346;28;20207;-65
2023/11/15 08:17:35;;;;;;;0.40;0.40;;;20.70;60.50;;;19.82;49.23;94369.63;5034581;28;20206;-64
2023/11/15 08:20:09;;;;;;;0.50;0.50;;;20.70;60.50;;;19.84;49.10;94366.72;5050739;28;20232;-66
2023/11/15 08:22:38;;;;;;;0.45;0.45;;;20.70;60.50;;;19.81;49.02;94359.22;5052490;28;20267;-64
2023/11/15 08:25:09;;;;;;;0.40;0.40;;;20.70;60.50;;;19.86;48.89;94366.44;5051179;28;20256;-66
2023/11/15 08:27:38;;;;;;;0.40;0.40;;;20.70;60.50;;;19.88;48.83;94374.97;5051404;28;20624;-64
2023/11/15 08:30:17;;;;;;;0.40;0.40;;;20.70;60.50;;;19.81;48.70;94381.31;5050990;28;20202;-60
2023/11/15 08:32:48;;;;;;;0.47;0.47;;;20.70;60.50;;;19.90;48.72;94378.19;5035792;28;20259;-66
2023/11/15 08:35:17;;;;;;;0.50;0.50;;;20.70;60.40;;;19.89;48.62;94395.19;5034663;28;20207;-60
2023/11/15 08:37:45;;;;;;;0.40;0.40;;;20.70;60.50;;;19.89;48.67;94393.31;5034534;28;20739;-62
2023/11/15 08:40:13;;;;;;;0.50;0.50;;;20.70;60.50;;;19.84;49.13;94385.34;5050583;28;20235;-62
2023/11/15 08:42:56;;;;;;;0.50;0.50;;;20.70;60.40;;;19.83;48.95;94389.88;5051130;28;20594;-64
2023/11/15 08:45:25;;;;;;;0.50;0.50;;;20.80;60.40;;;19.86;48.53;94382.41;5051139;28;20653;-64
2023/11/15 08:47:56;;;;;;;0.40;0.40;;;20.80;60.50;;;19.92;49.02;94413.28;5034836;28;20208;-65
2023/11/15 08:50:27;;;;;;;0.40;0.40;;;20.80;60.50;;;19.94;48.89;94429.81;5051820;28;20194;-63
2023/11/15 08:52:56;;;;;;;0.40;0.40;;;20.80;60.40;;;19.95;48.89;94412.78;5050896;28;20280;-65
2023/11/15 08:55:24;;;;;;;0.40;0.40;;;20.80;60.50;;;19.96;48.75;94412.50;5050769;28;20278;-66
2023/11/15 08:57:51;;;;;;;0.50;0.50;;;20.80;60.50;;;19.92;48.67;94421.28;5050552;28;20350;-64
2023/11/15 09:00:20;;;;;;;0.45;0.45;;;20.80;60.40;;;19.98;49.06;94445.00;5050475;28;20227;-65
2023/11/15 09:02:48;;;;;;;0.40;0.40;;;20.70;60.40;;;20.00;48.54;94440.19;5050707;28;20277;-65
2023/11/15 09:05:19;;;;;;;0.40;0.40;;;20.80;60.50;;;20.00;48.84;94447.38;5050922;28;20205;-65
2023/11/15 09:07:48;;;;;;;0.40;0.40;;;20.80;60.50;;;19.96;48.67;94433.00;5050602;28;20197;-66
2023/11/15 09:10:16;;;;;;;0.40;0.40;;;20.80;60.40;;;19.97;48.87;94447.94;5033969;28;20209;-64
2023/11/15 09:12:47;;;;;;;0.40;0.40;;;20.80;60.40;;;20.03;48.80;94462.84;5050819;28;20202;-62
2023/11/15 09:15:15;;;;;;;0.43;0.43;;;20.80;60.50;;;19.97;48.27;94458.56;5051892;28;20237;-62
2023/11/15 09:17:48;;;;;;;0.40;0.40;;;20.80;60.40;;;20.05;48.86;94470.56;5051627;28;20658;-64
2023/11/15 09:20:21;;;;;;;0.50;0.50;;;20.80;60.50;;;19.99;48.50;94467.06;5053133;28;20215;-60
2023/11/15 09:22:49;;;;;;;0.40;0.40;;;20.80;60.40;;;20.05;48.38;94471.34;5054087;28;20573;-66
2023/11/15 09:25:26;;;;;;;0.40;0.40;;;20.80;60.40;;;20.03;48.48;94470.84;5055682;28;20295;-66
2023/11/15 09:27:57;;;;;;;0.40;0.40;;;20.80;60.30;;;20.02;48.48;94493.19;5054164;28;20202;-65
2023/11/15 09:30:26;;;;;;;0.40;0.40;;;20.90;60.40;;;20.03;48.41;94492.13;5053767;28;20201;-66
2023/11/15 09:32:54;;;;;;;0.40;0.40;;;20.90;60.50;;;20.05;49.10;94499.84;5053995;28;20657;-65
2023/11/15 09:35:27;;;;;;;0.50;0.50;;;20.90;60.40;;;19.98;48.99;94489.44;5054146;28;20195;-64
2023/11/15 09:37:59;;;;;;;0.40;0.40;;;20.90;60.40;;;20.05;49.04;94508.63;5054075;28;20282;-65
2023/11/15 09:40:27;;;;;;;0.50;0.50;;;20.90;60.30;;;20.05;48.59;94495.31;5054578;28;20230;-66
2023/11/15 09:43:00;;;;;;;0.45;0.45;;;20.90;60.50;;;20.08;48.58;94504.63;5053842;28;20202;-65
2023/11/15 09:45:31;;;;;;;0.40;0.40;;;20.90;60.40;;;19.99;48.73;94489.19;5053709;28;20193;-65
2023/11/15 09:48:00;;;;;;;0.38;0.38;;;20.90;60.40;;;20.06;48.68;94499.59;5070230;28;20251;-66
2023/11/15 09:50:33;;;;;;;0.38;0.38;;;20.90;60.40;;;20.07;48.34;94503.06;5037034;28;20217;-65
2023/11/15 09:53:05;;;;;;;0.50;0.50;;;20.90;60.30;;;19.99;48.80;94472.41;5054572;28;20728;-65
2023/11/15 09:55:33;;;;;;;0.40;0.40;;;20.90;60.30;;;20.00;48.35;94476.66;5037119;28;20210;-65
2023/11/15 09:58:03;;;;;;;0.50;0.50;;;20.90;60.30;;;20.03;49.04;94478.81;5052260;28;20246;-61
2023/11/15 10:00:32;;;;;;;0.40;0.40;;;20.90;60.30;;;20.08;48.66;94481.50;5036660;28;20589;-64
2023/11/15 10:03:00;;;;;;;0.40;0.40;;;20.90;60.30;;;20.09;48.50;94493.75;5053089;28;20308;-61
2023/11/15 10:05:28;;;;;;;0.40;0.40;;;20.90;60.30;;;20.04;48.55;94492.91;5053427;28;20202;-66
2023/11/15 10:08:12;;;;;;;0.60;0.60;;;20.90;60.40;;;20.11;48.80;94482.81;5053285;28;20566;-60
2023/11/15 10:10:50;;;;;;;0.40;0.40;;;20.90;60.40;;;20.12;48.36;94487.88;5053576;28;20272;-66
2023/11/15 10:13:21;;;;;;;0.40;0.40;;;20.90;60.40;;;20.11;48.52;94480.94;5054238;28;20191;-66
2023/11/15 10:15:48;;;;;;;0.38;0.38;;;20.90;60.40;;;20.05;48.86;94467.91;5036912;28;20226;-64
2023/11/15 10:18:33;;;;;;;0.40;0.40;;;20.90;60.40;;;20.11;48.47;94496.94;5053941;28;20942;-62
2023/11/15 10:21:11;;;;;;;0.30;0.30;;;20.90;60.40;;;20.16;48.90;94496.16;5053077;28;20214;-62
2023/11/15 10:23:41;;;;;;;0.40;0.40;;;20.90;60.40;;;20.18;48.61;94471.91;5036701;28;20219;-65
2023/11/15 10:26:10;;;;;;;0.40;0.40;;;20.90;60.40;;;20.14;48.31;94468.97;5036615;28;20289;-65
2023/11/15 10:28:43;;;;;;;0.43;0.43;;;20.90;60.40;;;20.22;48.38;94483.66;5054081;28;20187;-64